Terminal Aerodrome Forecast
Issued by NWS

Home | Current Version | Previous Version | Text Only | Print | Product List | Glossary On
Versions: 1 2 3 4 5 6 7 8 9 10 11 12 13 14
000
FTUS43 KMPX 241126
TAFAXN
TAF
KAXN 241126Z 2412/2512 12013KT P6SM BKN200
     FM241600 16018G29KT P6SM BKN100
     FM242000 18015G23KT P6SM VCSH OVC030
     FM250000 21012G18KT P6SM OVC025
     FM250300 26009KT P6SM OVC020
     FM250600 31010KT P6SM OVC010=

USA.gov is the U.S. government's official web portal to all federal, state and local government web resources and services.